sensor_id;sensor_type;location;lat;lon;timestamp;temperature;humidity
18932;DHT22;9598;50.954;3.112;2023-04-15T00:00:01;11.80;99.90
18932;DHT22;9598;50.954;3.112;2023-04-15T00:05:15;11.80;99.90
18932;DHT22;9598;50.954;3.112;2023-04-15T00:10:17;11.80;99.90
18932;DHT22;9598;50.954;3.112;2023-04-15T00:15:19;11.80;99.90
18932;DHT22;9598;50.954;3.112;2023-04-15T00:20:24;11.80;99.90
18932;DHT22;9598;50.954;3.112;2023-04-15T00:25:26;11.90;99.90
18932;DHT22;9598;50.954;3.112;2023-04-15T00:30:28;11.90;99.90
18932;DHT22;9598;50.954;3.112;2023-04-15T00:35:32;11.90;99.90
18932;DHT22;9598;50.954;3.112;2023-04-15T00:40:35;11.90;99.90
18932;DHT22;9598;50.954;3.112;2023-04-15T00:45:38;11.80;99.90
18932;DHT22;9598;50.954;3.112;2023-04-15T00:50:42;11.80;99.90
18932;DHT22;9598;50.954;3.112;2023-04-15T00:55:44;11.80;99.90
18932;DHT22;9598;50.954;3.112;2023-04-15T01:00:46;11.70;99.90
18932;DHT22;9598;50.954;3.112;2023-04-15T01:05:50;11.70;99.90
18932;DHT22;9598;50.954;3.112;2023-04-15T01:11:00;11.60;99.90
18932;DHT22;9598;50.954;3.112;2023-04-15T01:16:03;11.60;99.90
18932;DHT22;9598;50.954;3.112;2023-04-15T01:21:07;11.50;99.90
18932;DHT22;9598;50.954;3.112;2023-04-15T01:26:11;11.40;99.90
18932;DHT22;9598;50.954;3.112;2023-04-15T01:31:14;11.40;99.90
18932;DHT22;9598;50.954;3.112;2023-04-15T01:36:16;11.30;99.90
18932;DHT22;9598;50.954;3.112;2023-04-15T01:41:24;11.20;99.90
18932;DHT22;9598;50.954;3.112;2023-04-15T01:46:26;11.20;99.90
18932;DHT22;9598;50.954;3.112;2023-04-15T01:51:29;11.00;99.90
18932;DHT22;9598;50.954;3.112;2023-04-15T01:56:33;10.90;99.90
18932;DHT22;9598;50.954;3.112;2023-04-15T02:01:35;10.90;99.90
18932;DHT22;9598;50.954;3.112;2023-04-15T02:06:37;10.90;99.90
18932;DHT22;9598;50.954;3.112;2023-04-15T02:11:41;10.90;99.90
18932;DHT22;9598;50.954;3.112;2023-04-15T02:16:43;10.80;99.90
18932;DHT22;9598;50.954;3.112;2023-04-15T02:21:48;10.80;99.90
18932;DHT22;9598;50.954;3.112;2023-04-15T02:26:53;10.80;99.90
18932;DHT22;9598;50.954;3.112;2023-04-15T02:31:56;10.70;99.90
18932;DHT22;9598;50.954;3.112;2023-04-15T02:36:58;10.70;99.90
18932;DHT22;9598;50.954;3.112;2023-04-15T02:42:02;10.60;99.90
18932;DHT22;9598;50.954;3.112;2023-04-15T02:47:05;10.60;99.90
18932;DHT22;9598;50.954;3.112;2023-04-15T02:52:08;10.50;99.90
18932;DHT22;9598;50.954;3.112;2023-04-15T02:57:11;10.50;99.90
18932;DHT22;9598;50.954;3.112;2023-04-15T03:02:13;10.50;99.90
18932;DHT22;9598;50.954;3.112;2023-04-15T03:07:17;10.40;99.90
18932;DHT22;9598;50.954;3.112;2023-04-15T03:12:20;10.40;99.90
18932;DHT22;9598;50.954;3.112;2023-04-15T03:17:25;10.40;99.90
18932;DHT22;9598;50.954;3.112;2023-04-15T03:22:28;10.40;99.90
18932;DHT22;9598;50.954;3.112;2023-04-15T03:27:32;10.40;99.90
18932;DHT22;9598;50.954;3.112;2023-04-15T03:32:36;10.40;99.90
18932;DHT22;9598;50.954;3.112;2023-04-15T03:37:40;10.40;99.90
18932;DHT22;9598;50.954;3.112;2023-04-15T03:42:44;10.40;99.90
18932;DHT22;9598;50.954;3.112;2023-04-15T03:47:46;10.40;99.90
18932;DHT22;9598;50.954;3.112;2023-04-15T03:52:49;10.50;99.90
18932;DHT22;9598;50.954;3.112;2023-04-15T03:57:52;10.50;99.90
18932;DHT22;9598;50.954;3.112;2023-04-15T04:02:55;10.50;99.90
18932;DHT22;9598;50.954;3.112;2023-04-15T04:07:57;10.60;99.90
18932;DHT22;9598;50.954;3.112;2023-04-15T04:13:00;10.60;99.90
18932;DHT22;9598;50.954;3.112;2023-04-15T04:18:02;10.70;99.90
18932;DHT22;9598;50.954;3.112;2023-04-15T04:23:04;10.70;99.90
18932;DHT22;9598;50.954;3.112;2023-04-15T04:28:08;10.70;99.90
18932;DHT22;9598;50.954;3.112;2023-04-15T04:33:11;10.70;99.90
18932;DHT22;9598;50.954;3.112;2023-04-15T04:38:13;10.70;99.90
18932;DHT22;9598;50.954;3.112;2023-04-15T04:43:17;10.70;99.90
18932;DHT22;9598;50.954;3.112;2023-04-15T04:48:19;10.70;99.90
18932;DHT22;9598;50.954;3.112;2023-04-15T04:53:21;10.70;99.90
18932;DHT22;9598;50.954;3.112;2023-04-15T04:58:24;10.70;99.90
18932;DHT22;9598;50.954;3.112;2023-04-15T05:03:27;10.70;99.90
18932;DHT22;9598;50.954;3.112;2023-04-15T05:08:29;10.60;99.90
18932;DHT22;9598;50.954;3.112;2023-04-15T05:13:32;10.60;99.90
18932;DHT22;9598;50.954;3.112;2023-04-15T05:18:34;10.60;99.90
18932;DHT22;9598;50.954;3.112;2023-04-15T05:23:37;10.60;99.90
18932;DHT22;9598;50.954;3.112;2023-04-15T05:28:41;10.60;99.90
18932;DHT22;9598;50.954;3.112;2023-04-15T05:33:43;10.50;99.90
18932;DHT22;9598;50.954;3.112;2023-04-15T05:38:45;10.50;99.90
18932;DHT22;9598;50.954;3.112;2023-04-15T05:43:49;10.50;99.90
18932;DHT22;9598;50.954;3.112;2023-04-15T05:48:51;10.50;99.90
18932;DHT22;9598;50.954;3.112;2023-04-15T05:53:53;10.50;99.90
18932;DHT22;9598;50.954;3.112;2023-04-15T05:58:57;10.50;99.90
18932;DHT22;9598;50.954;3.112;2023-04-15T06:03:59;10.50;99.90
18932;DHT22;9598;50.954;3.112;2023-04-15T06:09:02;10.50;99.90
18932;DHT22;9598;50.954;3.112;2023-04-15T06:14:05;10.60;99.90
18932;DHT22;9598;50.954;3.112;2023-04-15T06:19:07;10.50;99.90
18932;DHT22;9598;50.954;3.112;2023-04-15T06:24:10;10.60;99.90
18932;DHT22;9598;50.954;3.112;2023-04-15T06:29:14;10.60;99.90
18932;DHT22;9598;50.954;3.112;2023-04-15T06:34:16;10.60;99.90
18932;DHT22;9598;50.954;3.112;2023-04-15T06:39:18;10.60;99.90
18932;DHT22;9598;50.954;3.112;2023-04-15T06:44:21;10.70;99.90
18932;DHT22;9598;50.954;3.112;2023-04-15T06:49:23;10.60;99.90
18932;DHT22;9598;50.954;3.112;2023-04-15T06:54:26;10.60;99.90
18932;DHT22;9598;50.954;3.112;2023-04-15T06:59:29;10.60;99.90
18932;DHT22;9598;50.954;3.112;2023-04-15T07:04:32;10.60;99.90
18932;DHT22;9598;50.954;3.112;2023-04-15T07:09:34;10.60;99.90
18932;DHT22;9598;50.954;3.112;2023-04-15T07:14:37;10.70;99.90
18932;DHT22;9598;50.954;3.112;2023-04-15T07:19:39;10.80;99.90
18932;DHT22;9598;50.954;3.112;2023-04-15T07:24:41;10.90;99.90
18932;DHT22;9598;50.954;3.112;2023-04-15T07:29:45;11.00;99.90
18932;DHT22;9598;50.954;3.112;2023-04-15T07:34:47;11.00;99.90
18932;DHT22;9598;50.954;3.112;2023-04-15T07:39:49;11.10;99.90
18932;DHT22;9598;50.954;3.112;2023-04-15T07:44:53;11.10;99.90
18932;DHT22;9598;50.954;3.112;2023-04-15T07:49:56;11.20;99.90
18932;DHT22;9598;50.954;3.112;2023-04-15T07:54:58;11.30;99.90
18932;DHT22;9598;50.954;3.112;2023-04-15T08:00:02;11.30;99.90
18932;DHT22;9598;50.954;3.112;2023-04-15T08:05:13;11.30;99.90
18932;DHT22;9598;50.954;3.112;2023-04-15T08:10:15;11.40;99.90
18932;DHT22;9598;50.954;3.112;2023-04-15T08:15:19;11.50;99.90
18932;DHT22;9598;50.954;3.112;2023-04-15T08:20:21;11.50;99.90
18932;DHT22;9598;50.954;3.112;2023-04-15T08:25:24;11.60;99.90
18932;DHT22;9598;50.954;3.112;2023-04-15T08:30:28;11.70;99.90
18932;DHT22;9598;50.954;3.112;2023-04-15T08:35:30;11.70;99.90
18932;DHT22;9598;50.954;3.112;2023-04-15T08:40:41;11.80;99.90
18932;DHT22;9598;50.954;3.112;2023-04-15T08:51:08;11.90;99.90
18932;DHT22;9598;50.954;3.112;2023-04-15T08:56:11;12.00;99.90
18932;DHT22;9598;50.954;3.112;2023-04-15T09:01:15;12.10;99.90
18932;DHT22;9598;50.954;3.112;2023-04-15T09:06:19;12.10;99.90
18932;DHT22;9598;50.954;3.112;2023-04-15T09:11:21;12.20;99.90
18932;DHT22;9598;50.954;3.112;2023-04-15T09:16:24;12.50;99.90
18932;DHT22;9598;50.954;3.112;2023-04-15T09:21:30;12.70;99.90
18932;DHT22;9598;50.954;3.112;2023-04-15T09:26:35;12.90;99.90
18932;DHT22;9598;50.954;3.112;2023-04-15T09:31:37;13.20;99.90
18932;DHT22;9598;50.954;3.112;2023-04-15T09:36:56;13.40;99.90
18932;DHT22;9598;50.954;3.112;2023-04-15T09:42:05;13.60;99.90
18932;DHT22;9598;50.954;3.112;2023-04-15T09:47:08;13.70;99.90
18932;DHT22;9598;50.954;3.112;2023-04-15T09:52:13;13.90;99.90
18932;DHT22;9598;50.954;3.112;2023-04-15T09:57:15;14.10;99.90
18932;DHT22;9598;50.954;3.112;2023-04-15T10:02:18;14.30;99.90
18932;DHT22;9598;50.954;3.112;2023-04-15T10:07:31;14.40;99.90
18932;DHT22;9598;50.954;3.112;2023-04-15T10:12:36;14.50;99.90
18932;DHT22;9598;50.954;3.112;2023-04-15T10:17:42;14.60;99.90
18932;DHT22;9598;50.954;3.112;2023-04-15T10:22:45;14.60;99.90
18932;DHT22;9598;50.954;3.112;2023-04-15T10:27:49;14.50;99.90
18932;DHT22;9598;50.954;3.112;2023-04-15T10:32:52;14.60;99.90
18932;DHT22;9598;50.954;3.112;2023-04-15T10:37:56;14.70;99.90
18932;DHT22;9598;50.954;3.112;2023-04-15T10:43:00;14.70;99.90
18932;DHT22;9598;50.954;3.112;2023-04-15T10:48:04;14.80;99.90
18932;DHT22;9598;50.954;3.112;2023-04-15T10:53:10;15.10;99.90
18932;DHT22;9598;50.954;3.112;2023-04-15T10:58:12;15.20;99.90
18932;DHT22;9598;50.954;3.112;2023-04-15T11:03:15;15.30;99.90
18932;DHT22;9598;50.954;3.112;2023-04-15T11:08:19;15.50;99.90
18932;DHT22;9598;50.954;3.112;2023-04-15T11:13:23;15.50;99.90
18932;DHT22;9598;50.954;3.112;2023-04-15T11:18:32;15.60;99.90
18932;DHT22;9598;50.954;3.112;2023-04-15T11:23:37;15.80;99.90
18932;DHT22;9598;50.954;3.112;2023-04-15T11:28:41;16.10;99.90
18932;DHT22;9598;50.954;3.112;2023-04-15T11:33:45;16.20;99.90
18932;DHT22;9598;50.954;3.112;2023-04-15T11:38:49;16.30;99.90
18932;DHT22;9598;50.954;3.112;2023-04-15T11:43:51;16.50;99.90
18932;DHT22;9598;50.954;3.112;2023-04-15T11:48:54;16.60;99.90
18932;DHT22;9598;50.954;3.112;2023-04-15T11:53:57;16.70;99.90
18932;DHT22;9598;50.954;3.112;2023-04-15T11:58:59;16.70;99.90
18932;DHT22;9598;50.954;3.112;2023-04-15T12:04:02;16.60;99.90
18932;DHT22;9598;50.954;3.112;2023-04-15T12:09:13;16.70;99.90
18932;DHT22;9598;50.954;3.112;2023-04-15T12:14:20;16.70;99.90
18932;DHT22;9598;50.954;3.112;2023-04-15T12:19:24;16.70;99.90
18932;DHT22;9598;50.954;3.112;2023-04-15T12:24:31;16.60;99.90
18932;DHT22;9598;50.954;3.112;2023-04-15T12:29:34;16.60;99.90
18932;DHT22;9598;50.954;3.112;2023-04-15T12:34:38;16.80;99.90
18932;DHT22;9598;50.954;3.112;2023-04-15T12:39:43;16.80;99.90
18932;DHT22;9598;50.954;3.112;2023-04-15T12:44:45;16.80;99.90
18932;DHT22;9598;50.954;3.112;2023-04-15T12:49:48;16.90;99.90
18932;DHT22;9598;50.954;3.112;2023-04-15T12:54:52;17.10;99.90
18932;DHT22;9598;50.954;3.112;2023-04-15T12:59:54;17.30;99.90
18932;DHT22;9598;50.954;3.112;2023-04-15T13:04:56;17.30;99.90
18932;DHT22;9598;50.954;3.112;2023-04-15T13:10:00;17.00;99.90
18932;DHT22;9598;50.954;3.112;2023-04-15T13:15:02;17.10;99.90
18932;DHT22;9598;50.954;3.112;2023-04-15T13:20:05;17.10;99.90
18932;DHT22;9598;50.954;3.112;2023-04-15T13:25:10;17.00;99.90
18932;DHT22;9598;50.954;3.112;2023-04-15T13:30:12;17.00;99.90
18932;DHT22;9598;50.954;3.112;2023-04-15T13:35:14;16.90;99.90
18932;DHT22;9598;50.954;3.112;2023-04-15T13:40:19;16.90;99.90
18932;DHT22;9598;50.954;3.112;2023-04-15T13:45:21;16.90;99.90
18932;DHT22;9598;50.954;3.112;2023-04-15T13:50:23;16.90;99.90
18932;DHT22;9598;50.954;3.112;2023-04-15T13:55:27;16.80;99.90
18932;DHT22;9598;50.954;3.112;2023-04-15T14:00:30;16.90;99.90
18932;DHT22;9598;50.954;3.112;2023-04-15T14:05:32;16.80;99.90
18932;DHT22;9598;50.954;3.112;2023-04-15T14:10:36;16.80;99.90
18932;DHT22;9598;50.954;3.112;2023-04-15T14:15:38;16.80;99.90
18932;DHT22;9598;50.954;3.112;2023-04-15T14:20:40;16.80;99.90
18932;DHT22;9598;50.954;3.112;2023-04-15T14:25:44;16.70;99.90
18932;DHT22;9598;50.954;3.112;2023-04-15T14:30:46;16.80;99.90
18932;DHT22;9598;50.954;3.112;2023-04-15T14:35:48;16.80;99.90
18932;DHT22;9598;50.954;3.112;2023-04-15T14:40:52;16.70;99.90
18932;DHT22;9598;50.954;3.112;2023-04-15T14:45:54;16.50;99.90
18932;DHT22;9598;50.954;3.112;2023-04-15T14:50:58;16.50;99.90
18932;DHT22;9598;50.954;3.112;2023-04-15T14:56:02;16.40;99.90
18932;DHT22;9598;50.954;3.112;2023-04-15T15:01:04;16.20;99.90
18932;DHT22;9598;50.954;3.112;2023-04-15T15:06:06;16.20;99.90
18932;DHT22;9598;50.954;3.112;2023-04-15T15:11:10;16.20;99.90
18932;DHT22;9598;50.954;3.112;2023-04-15T15:16:12;16.00;99.90
18932;DHT22;9598;50.954;3.112;2023-04-15T15:21:14;16.00;99.90
18932;DHT22;9598;50.954;3.112;2023-04-15T15:26:18;15.80;99.90
18932;DHT22;9598;50.954;3.112;2023-04-15T15:31:20;15.70;99.90
18932;DHT22;9598;50.954;3.112;2023-04-15T15:36:22;15.70;99.90
18932;DHT22;9598;50.954;3.112;2023-04-15T15:41:26;15.50;99.90
18932;DHT22;9598;50.954;3.112;2023-04-15T15:46:28;15.40;99.90
18932;DHT22;9598;50.954;3.112;2023-04-15T15:51:31;15.30;99.90
18932;DHT22;9598;50.954;3.112;2023-04-15T15:56:34;15.30;99.90
18932;DHT22;9598;50.954;3.112;2023-04-15T16:01:38;15.10;99.90
18932;DHT22;9598;50.954;3.112;2023-04-15T16:06:40;15.00;99.90
18932;DHT22;9598;50.954;3.112;2023-04-15T16:11:45;14.90;99.90
18932;DHT22;9598;50.954;3.112;2023-04-15T16:16:47;14.70;99.90
18932;DHT22;9598;50.954;3.112;2023-04-15T16:21:49;14.70;99.90
18932;DHT22;9598;50.954;3.112;2023-04-15T16:26:53;14.60;99.90
18932;DHT22;9598;50.954;3.112;2023-04-15T16:31:58;14.50;99.90
18932;DHT22;9598;50.954;3.112;2023-04-15T16:37:00;14.40;99.90
18932;DHT22;9598;50.954;3.112;2023-04-15T16:42:03;14.20;99.90
18932;DHT22;9598;50.954;3.112;2023-04-15T16:47:06;14.10;99.90
18932;DHT22;9598;50.954;3.112;2023-04-15T16:52:11;14.10;99.90
18932;DHT22;9598;50.954;3.112;2023-04-15T16:57:15;14.10;99.90
18932;DHT22;9598;50.954;3.112;2023-04-15T17:02:17;14.00;99.90
18932;DHT22;9598;50.954;3.112;2023-04-15T17:07:19;14.00;99.90
18932;DHT22;9598;50.954;3.112;2023-04-15T17:12:23;13.90;99.90
18932;DHT22;9598;50.954;3.112;2023-04-15T17:17:25;13.80;99.90
18932;DHT22;9598;50.954;3.112;2023-04-15T17:22:27;13.70;99.90
18932;DHT22;9598;50.954;3.112;2023-04-15T17:27:30;13.60;99.90
18932;DHT22;9598;50.954;3.112;2023-04-15T17:32:32;13.60;99.90
18932;DHT22;9598;50.954;3.112;2023-04-15T17:37:35;13.50;99.90
18932;DHT22;9598;50.954;3.112;2023-04-15T17:42:38;13.50;99.90
18932;DHT22;9598;50.954;3.112;2023-04-15T17:47:41;13.40;99.90
18932;DHT22;9598;50.954;3.112;2023-04-15T17:52:43;13.40;99.90
18932;DHT22;9598;50.954;3.112;2023-04-15T17:57:49;13.30;99.90
18932;DHT22;9598;50.954;3.112;2023-04-15T18:02:51;13.20;99.90
18932;DHT22;9598;50.954;3.112;2023-04-15T18:07:53;13.10;99.90
18932;DHT22;9598;50.954;3.112;2023-04-15T18:12:57;13.00;99.90
18932;DHT22;9598;50.954;3.112;2023-04-15T18:17:59;12.90;99.90
18932;DHT22;9598;50.954;3.112;2023-04-15T18:23:01;12.80;99.90
18932;DHT22;9598;50.954;3.112;2023-04-15T18:28:05;12.70;99.90
18932;DHT22;9598;50.954;3.112;2023-04-15T18:33:07;12.70;99.90
18932;DHT22;9598;50.954;3.112;2023-04-15T18:38:09;12.60;99.90
18932;DHT22;9598;50.954;3.112;2023-04-15T18:43:12;12.60;99.90
18932;DHT22;9598;50.954;3.112;2023-04-15T18:48:14;12.50;99.90
18932;DHT22;9598;50.954;3.112;2023-04-15T18:53:17;12.40;99.90
18932;DHT22;9598;50.954;3.112;2023-04-15T18:58:21;12.30;99.90
18932;DHT22;9598;50.954;3.112;2023-04-15T19:03:23;12.20;99.90
18932;DHT22;9598;50.954;3.112;2023-04-15T19:08:25;12.10;99.90
18932;DHT22;9598;50.954;3.112;2023-04-15T19:13:30;12.00;99.90
18932;DHT22;9598;50.954;3.112;2023-04-15T19:18:32;11.90;99.90
18932;DHT22;9598;50.954;3.112;2023-04-15T19:23:34;11.90;99.90
18932;DHT22;9598;50.954;3.112;2023-04-15T19:28:38;11.80;99.90
18932;DHT22;9598;50.954;3.112;2023-04-15T19:33:40;11.80;99.90
18932;DHT22;9598;50.954;3.112;2023-04-15T19:38:42;11.70;99.90
18932;DHT22;9598;50.954;3.112;2023-04-15T19:43:46;11.70;99.90
18932;DHT22;9598;50.954;3.112;2023-04-15T19:48:48;11.70;99.90
18932;DHT22;9598;50.954;3.112;2023-04-15T19:53:50;11.60;99.90
18932;DHT22;9598;50.954;3.112;2023-04-15T19:58:55;11.60;99.90
18932;DHT22;9598;50.954;3.112;2023-04-15T20:03:57;11.50;99.90
18932;DHT22;9598;50.954;3.112;2023-04-15T20:08:59;11.50;99.90
18932;DHT22;9598;50.954;3.112;2023-04-15T20:14:03;11.40;99.90
18932;DHT22;9598;50.954;3.112;2023-04-15T20:19:05;11.40;99.90
18932;DHT22;9598;50.954;3.112;2023-04-15T20:24:08;11.30;99.90
18932;DHT22;9598;50.954;3.112;2023-04-15T20:29:12;11.30;99.90
18932;DHT22;9598;50.954;3.112;2023-04-15T20:34:14;11.20;99.90
18932;DHT22;9598;50.954;3.112;2023-04-15T20:39:16;11.20;99.90
18932;DHT22;9598;50.954;3.112;2023-04-15T20:44:20;11.10;99.90
18932;DHT22;9598;50.954;3.112;2023-04-15T20:49:22;11.00;99.90
18932;DHT22;9598;50.954;3.112;2023-04-15T20:54:24;10.90;99.90
18932;DHT22;9598;50.954;3.112;2023-04-15T20:59:28;10.80;99.90
18932;DHT22;9598;50.954;3.112;2023-04-15T21:04:30;10.70;99.90
18932;DHT22;9598;50.954;3.112;2023-04-15T21:09:32;10.70;99.90
18932;DHT22;9598;50.954;3.112;2023-04-15T21:14:36;10.70;99.90
18932;DHT22;9598;50.954;3.112;2023-04-15T21:19:38;10.60;99.90
18932;DHT22;9598;50.954;3.112;2023-04-15T21:24:41;10.50;99.90
18932;DHT22;9598;50.954;3.112;2023-04-15T21:29:44;10.50;99.90
18932;DHT22;9598;50.954;3.112;2023-04-15T21:34:46;10.50;99.90
18932;DHT22;9598;50.954;3.112;2023-04-15T21:39:48;10.40;99.90
18932;DHT22;9598;50.954;3.112;2023-04-15T21:44:52;10.40;99.90
18932;DHT22;9598;50.954;3.112;2023-04-15T21:49:54;10.40;99.90
18932;DHT22;9598;50.954;3.112;2023-04-15T21:54:56;10.40;99.90
18932;DHT22;9598;50.954;3.112;2023-04-15T21:59:59;10.40;99.90
18932;DHT22;9598;50.954;3.112;2023-04-15T22:05:02;10.40;99.90
18932;DHT22;9598;50.954;3.112;2023-04-15T22:10:05;10.30;99.90
18932;DHT22;9598;50.954;3.112;2023-04-15T22:15:09;10.20;99.90
18932;DHT22;9598;50.954;3.112;2023-04-15T22:20:12;10.20;99.90
18932;DHT22;9598;50.954;3.112;2023-04-15T22:25:14;10.20;99.90
18932;DHT22;9598;50.954;3.112;2023-04-15T22:30:17;10.10;99.90
18932;DHT22;9598;50.954;3.112;2023-04-15T22:35:20;10.00;99.90
18932;DHT22;9598;50.954;3.112;2023-04-15T22:40:22;10.00;99.90
18932;DHT22;9598;50.954;3.112;2023-04-15T22:45:25;9.90;99.90
18932;DHT22;9598;50.954;3.112;2023-04-15T22:50:27;9.90;99.90
18932;DHT22;9598;50.954;3.112;2023-04-15T22:55:30;9.80;99.90
18932;DHT22;9598;50.954;3.112;2023-04-15T23:00:33;9.80;99.90
18932;DHT22;9598;50.954;3.112;2023-04-15T23:05:35;9.70;99.90
18932;DHT22;9598;50.954;3.112;2023-04-15T23:10:39;9.70;99.90
18932;DHT22;9598;50.954;3.112;2023-04-15T23:15:43;9.60;99.90
18932;DHT22;9598;50.954;3.112;2023-04-15T23:20:45;9.60;99.90
18932;DHT22;9598;50.954;3.112;2023-04-15T23:25:47;9.60;99.90
18932;DHT22;9598;50.954;3.112;2023-04-15T23:30:50;9.60;99.90
18932;DHT22;9598;50.954;3.112;2023-04-15T23:35:53;9.50;99.90
18932;DHT22;9598;50.954;3.112;2023-04-15T23:40:55;9.50;99.90
18932;DHT22;9598;50.954;3.112;2023-04-15T23:45:58;9.50;99.90
18932;DHT22;9598;50.954;3.112;2023-04-15T23:51:00;9.40;99.90
18932;DHT22;9598;50.954;3.112;2023-04-15T23:56:03;9.40;99.90
